createdAt,value
2019-04-10T00:01:48.977Z,9.80
2019-04-10T00:04:18.876Z,9.80
2019-04-10T00:06:48.184Z,9.80
2019-04-10T00:09:17.349Z,9.80
2019-04-10T00:11:47.208Z,9.70
2019-04-10T00:14:16.432Z,9.60
2019-04-10T00:16:46.644Z,9.60
2019-04-10T00:19:15.750Z,9.60
2019-04-10T00:21:45.227Z,9.60
2019-04-10T00:24:15.304Z,9.60
2019-04-10T00:26:44.674Z,9.70
2019-04-10T00:29:14.136Z,9.70
2019-04-10T00:31:43.244Z,9.70
2019-04-10T00:34:12.212Z,9.70
2019-04-10T00:36:41.527Z,9.70
2019-04-10T00:39:10.731Z,9.80
2019-04-10T00:41:40.613Z,9.70
2019-04-10T00:44:09.781Z,9.70
2019-04-10T00:46:38.779Z,9.70
2019-04-10T00:49:07.803Z,9.70
2019-04-10T00:51:36.762Z,9.70
2019-04-10T00:54:05.759Z,9.70
2019-04-10T00:56:34.836Z,9.70
2019-04-10T00:59:03.954Z,9.70
2019-04-10T01:01:33.988Z,9.70
2019-04-10T01:04:04.317Z,9.70
2019-04-10T01:06:33.823Z,9.60
2019-04-10T01:09:08.967Z,9.60
2019-04-10T01:11:39.160Z,9.60
2019-04-10T01:14:08.310Z,9.60
2019-04-10T01:16:37.760Z,9.60
2019-04-10T01:19:07.828Z,9.60
2019-04-10T01:21:36.925Z,9.60
2019-04-10T01:24:06.152Z,9.50
2019-04-10T01:26:35.180Z,9.50
2019-04-10T01:29:05.116Z,9.50
2019-04-10T01:31:35.111Z,9.50
2019-04-10T01:34:05.240Z,9.50
2019-04-10T01:36:35.330Z,9.40
2019-04-10T01:39:08.710Z,9.40
2019-04-10T01:41:37.742Z,9.30
2019-04-10T01:44:07.622Z,9.30
2019-04-10T01:46:38.086Z,9.30
2019-04-10T01:49:07.201Z,9.30
2019-04-10T01:51:36.278Z,9.40
2019-04-10T01:54:05.218Z,9.30
2019-04-10T01:56:36.126Z,9.40
2019-04-10T01:59:05.643Z,9.30
2019-04-10T02:01:36.803Z,9.30
2019-04-10T02:04:06.740Z,9.20
2019-04-10T02:06:36.191Z,9.20
2019-04-10T02:09:09.590Z,9.20
2019-04-10T02:11:39.773Z,9.20
2019-04-10T02:14:09.094Z,9.30
2019-04-10T02:16:38.983Z,9.20
2019-04-10T02:19:08.290Z,9.20
2019-04-10T02:21:38.029Z,9.30
2019-04-10T02:24:07.138Z,9.30
2019-04-10T02:26:36.265Z,9.40
2019-04-10T02:29:05.300Z,9.40
2019-04-10T02:31:34.649Z,9.50
2019-04-10T02:34:04.802Z,9.50
2019-04-10T02:36:36.206Z,9.50
2019-04-10T02:39:17.870Z,9.60
2019-04-10T02:41:38.636Z,9.60
2019-04-10T02:44:07.958Z,9.60
2019-04-10T02:46:38.721Z,9.70
2019-04-10T02:49:08.293Z,9.70
2019-04-10T02:51:38.882Z,9.70
2019-04-10T02:54:09.405Z,9.80
2019-04-10T02:56:39.165Z,9.80
2019-04-10T02:59:09.391Z,9.70
2019-04-10T03:01:39.939Z,9.70
2019-04-10T03:04:09.805Z,9.70
2019-04-10T03:06:39.926Z,9.70
2019-04-10T03:09:27.778Z,9.70
2019-04-10T03:11:39.756Z,9.70
2019-04-10T03:14:10.605Z,9.60
2019-04-10T03:16:41.771Z,9.60
2019-04-10T03:19:11.641Z,9.60
2019-04-10T03:21:40.777Z,9.70
2019-04-10T03:24:09.811Z,9.70
2019-04-10T03:26:39.491Z,9.60
2019-04-10T03:29:08.758Z,9.50
2019-04-10T03:31:39.210Z,9.50
2019-04-10T03:34:14.311Z,9.50
2019-04-10T03:36:45.422Z,9.50
2019-04-10T03:39:15.363Z,9.50
2019-04-10T03:41:44.724Z,9.50
2019-04-10T03:44:14.537Z,9.50
2019-04-10T03:46:44.767Z,9.50
2019-04-10T03:49:14.035Z,9.40
2019-04-10T03:51:43.071Z,9.40
2019-04-10T03:54:13.145Z,9.40
2019-04-10T03:56:42.354Z,9.40
2019-04-10T03:59:11.782Z,9.50
2019-04-10T04:01:40.973Z,9.40
2019-04-10T04:04:10.151Z,9.40
2019-04-10T04:06:39.836Z,9.40
2019-04-10T04:09:11.648Z,9.40
2019-04-10T04:11:39.964Z,9.40
2019-04-10T04:14:09.035Z,9.40
2019-04-10T04:16:38.086Z,9.50
2019-04-10T04:19:07.995Z,9.50
2019-04-10T04:21:37.045Z,9.50
2019-04-10T04:24:07.124Z,9.40
2019-04-10T04:26:37.095Z,9.40
2019-04-10T04:29:06.269Z,9.40
2019-04-10T04:31:35.411Z,9.40
2019-04-10T04:34:04.586Z,9.40
2019-04-10T04:36:33.631Z,9.40
2019-04-10T04:39:12.775Z,9.40
2019-04-10T04:41:33.855Z,9.40
2019-04-10T04:44:03.958Z,9.40
2019-04-10T04:46:33.099Z,9.40
2019-04-10T04:49:02.339Z,9.40
2019-04-10T04:51:31.471Z,9.30
2019-04-10T04:54:01.001Z,9.20
2019-04-10T04:56:30.211Z,9.20
2019-04-10T04:58:59.469Z,9.20
2019-04-10T05:01:29.628Z,9.20
2019-04-10T05:03:58.814Z,9.10
2019-04-10T05:06:27.775Z,9.10
2019-04-10T05:08:56.880Z,9.10
2019-04-10T05:11:26.595Z,9.10
2019-04-10T05:13:55.988Z,9.10
2019-04-10T05:16:25.264Z,9.10
2019-04-10T05:18:54.364Z,9.10
2019-04-10T05:21:23.529Z,9.00
2019-04-10T05:23:53.375Z,9.00
2019-04-10T05:26:22.837Z,9.00
2019-04-10T05:28:52.859Z,9.00
2019-04-10T05:31:22.102Z,9.00
2019-04-10T05:33:51.295Z,9.00
2019-04-10T05:36:21.510Z,9.00
2019-04-10T05:38:51.118Z,9.00
2019-04-10T05:41:21.713Z,9.10
2019-04-10T05:43:51.193Z,9.00
2019-04-10T05:46:21.457Z,9.00
2019-04-10T05:48:50.678Z,9.10
2019-04-10T05:51:19.627Z,9.10
2019-04-10T05:53:51.056Z,9.10
2019-04-10T05:56:20.581Z,9.10
2019-04-10T05:58:49.829Z,9.10
2019-04-10T06:01:30.461Z,9.00
2019-04-10T06:03:49.710Z,9.00
2019-04-10T06:06:18.712Z,9.10
2019-04-10T06:08:47.673Z,9.10
2019-04-10T06:11:17.169Z,9.10
2019-04-10T06:13:46.198Z,9.10
2019-04-10T06:16:15.382Z,9.10
2019-04-10T06:18:45.194Z,9.20
2019-04-10T06:21:14.734Z,9.20
2019-04-10T06:23:43.981Z,9.20
2019-04-10T06:26:15.586Z,9.20
2019-04-10T06:28:43.655Z,9.20
2019-04-10T06:31:12.594Z,9.20
2019-04-10T06:33:42.495Z,9.10
2019-04-10T06:36:11.610Z,9.20
2019-04-10T06:38:41.182Z,9.30
2019-04-10T06:41:10.540Z,9.30
2019-04-10T06:43:39.596Z,9.30
2019-04-10T06:46:08.649Z,9.30
2019-04-10T06:48:38.416Z,9.40
2019-04-10T06:51:08.206Z,9.30
2019-04-10T06:53:37.466Z,9.40
2019-04-10T06:56:06.977Z,9.50
2019-04-10T06:58:36.125Z,9.60
2019-04-10T07:01:06.217Z,9.70
2019-04-10T07:03:49.663Z,9.70
2019-04-10T07:06:14.371Z,9.80
2019-04-10T07:08:38.110Z,9.80
2019-04-10T07:11:10.065Z,9.90
2019-04-10T07:13:40.069Z,10.00
2019-04-10T07:16:10.221Z,10.00
2019-04-10T07:18:40.134Z,10.10
2019-04-10T07:21:10.649Z,10.20
2019-04-10T07:23:40.761Z,10.20
2019-04-10T07:26:10.168Z,10.20
2019-04-10T07:28:43.961Z,10.20
2019-04-10T07:31:11.273Z,10.20
2019-04-10T07:33:40.643Z,10.10
2019-04-10T07:36:13.640Z,10.10
2019-04-10T07:38:41.332Z,10.10
2019-04-10T07:41:16.591Z,10.20
2019-04-10T07:43:41.068Z,10.20
2019-04-10T07:46:10.077Z,10.40
2019-04-10T07:48:39.035Z,10.50
2019-04-10T07:51:09.017Z,10.60
2019-04-10T07:53:38.117Z,10.70
2019-04-10T07:56:13.089Z,10.70
2019-04-10T07:58:38.004Z,10.80
2019-04-10T08:01:07.894Z,10.80
2019-04-10T08:03:38.001Z,10.90
2019-04-10T08:06:06.977Z,10.80
2019-04-10T08:08:36.261Z,10.80
2019-04-10T08:11:05.646Z,10.90
2019-04-10T08:13:34.647Z,10.90
2019-04-10T08:16:03.881Z,10.80
2019-04-10T08:18:35.104Z,10.90
2019-04-10T08:21:04.970Z,10.90
2019-04-10T08:23:34.084Z,10.90
2019-04-10T08:26:03.622Z,10.80
2019-04-10T08:28:32.878Z,10.90
2019-04-10T08:31:02.223Z,10.90
2019-04-10T08:33:32.184Z,10.90
2019-04-10T08:36:01.284Z,10.90
2019-04-10T08:38:30.406Z,11.00
2019-04-10T08:41:00.632Z,11.00
2019-04-10T08:43:30.931Z,11.00
2019-04-10T08:46:01.787Z,11.10
2019-04-10T08:48:31.964Z,11.00
2019-04-10T08:51:01.658Z,11.20
2019-04-10T08:53:30.704Z,11.20
2019-04-10T08:55:59.767Z,11.20
2019-04-10T08:58:28.836Z,11.30
2019-04-10T09:00:58.703Z,11.30
2019-04-10T09:03:27.791Z,11.40
2019-04-10T09:05:57.067Z,11.50
2019-04-10T09:08:30.263Z,11.50
2019-04-10T09:10:59.283Z,11.60
2019-04-10T09:13:28.519Z,11.50
2019-04-10T09:15:58.377Z,11.50
2019-04-10T09:18:27.525Z,11.60
2019-04-10T09:20:57.895Z,11.60
2019-04-10T09:23:39.094Z,11.50
2019-04-10T09:26:01.857Z,11.40
2019-04-10T09:28:30.928Z,11.50
2019-04-10T09:31:00.003Z,11.40
2019-04-10T09:33:30.754Z,11.30
2019-04-10T09:36:00.593Z,11.20
2019-04-10T09:38:30.643Z,11.20
2019-04-10T09:40:59.850Z,11.10
2019-04-10T09:43:29.620Z,11.10
2019-04-10T09:45:58.754Z,11.00
2019-04-10T09:48:27.764Z,11.20
2019-04-10T09:50:56.835Z,11.30
2019-04-10T09:53:26.724Z,11.40
2019-04-10T09:55:56.753Z,11.50
2019-04-10T09:58:26.192Z,11.50
2019-04-10T10:00:56.507Z,11.50
2019-04-10T10:03:26.297Z,11.40
2019-04-10T10:05:57.107Z,11.50
2019-04-10T10:08:26.867Z,11.40
2019-04-10T10:10:55.975Z,11.30
2019-04-10T10:13:25.602Z,11.10
2019-04-10T10:15:54.875Z,11.10
2019-04-10T10:18:25.497Z,11.10
2019-04-10T10:20:54.750Z,11.10
2019-04-10T10:23:23.801Z,11.00
2019-04-10T10:25:53.302Z,10.90
2019-04-10T10:28:22.869Z,11.00
2019-04-10T10:30:52.063Z,11.00
2019-04-10T10:33:21.621Z,11.10
2019-04-10T10:35:51.538Z,11.10
2019-04-10T10:38:21.162Z,11.10
2019-04-10T10:40:50.826Z,11.00
2019-04-10T10:43:20.508Z,11.00
2019-04-10T10:45:49.844Z,11.00
2019-04-10T10:48:19.866Z,11.00
2019-04-10T10:50:49.866Z,11.10
2019-04-10T10:53:19.880Z,11.10
2019-04-10T10:55:49.708Z,11.20
2019-04-10T10:58:19.666Z,11.20
2019-04-10T11:00:50.074Z,11.30
2019-04-10T11:03:20.411Z,11.30
2019-04-10T11:05:50.648Z,11.30
2019-04-10T11:08:20.823Z,11.40
2019-04-10T11:10:55.701Z,11.30
2019-04-10T11:13:22.562Z,11.40
2019-04-10T11:15:52.477Z,11.40
2019-04-10T11:18:22.233Z,11.50
2019-04-10T11:20:52.298Z,11.50
2019-04-10T11:23:22.118Z,11.50
2019-04-10T11:25:52.924Z,11.40
2019-04-10T11:28:28.672Z,11.30
2019-04-10T11:30:53.737Z,11.30
2019-04-10T11:33:22.788Z,11.30
2019-04-10T11:35:53.340Z,11.40
2019-04-10T11:38:22.822Z,11.40
2019-04-10T11:40:55.003Z,11.40
2019-04-10T11:43:24.860Z,11.40
2019-04-10T11:45:56.154Z,11.40
2019-04-10T11:48:25.536Z,11.50
2019-04-10T11:50:59.126Z,11.50
2019-04-10T11:53:27.335Z,11.50
2019-04-10T11:55:59.476Z,11.50
2019-04-10T11:58:28.934Z,11.60
2019-04-10T12:00:59.596Z,11.60
2019-04-10T12:03:28.728Z,11.70
2019-04-10T12:05:59.583Z,11.70
2019-04-10T12:08:50.426Z,11.80
2019-04-10T12:13:28.516Z,11.90
2019-04-10T12:15:58.869Z,11.90
2019-04-10T12:18:28.680Z,11.90
2019-04-10T12:20:58.267Z,11.90
2019-04-10T12:23:27.281Z,11.90
2019-04-10T12:25:56.283Z,11.90
2019-04-10T12:28:25.622Z,11.90
2019-04-10T12:30:55.472Z,12.10
2019-04-10T12:33:25.457Z,12.10
2019-04-10T12:35:54.651Z,12.20
2019-04-10T12:38:23.844Z,12.20
2019-04-10T12:40:53.013Z,12.30
2019-04-10T12:43:23.173Z,12.30
2019-04-10T12:45:52.677Z,12.30
2019-04-10T12:48:22.918Z,12.30
2019-04-10T12:50:53.055Z,12.30
2019-04-10T12:53:23.325Z,12.40
2019-04-10T12:55:53.581Z,12.40
2019-04-10T12:58:22.905Z,12.50
2019-04-10T13:00:52.201Z,12.60
2019-04-10T13:03:21.403Z,12.60
2019-04-10T13:05:51.447Z,12.70
2019-04-10T13:08:25.651Z,12.80
2019-04-10T13:10:51.958Z,12.90
2019-04-10T13:13:22.076Z,12.90
2019-04-10T13:15:51.904Z,12.90
2019-04-10T13:18:21.135Z,12.90
2019-04-10T13:20:50.301Z,13.00
2019-04-10T13:23:20.366Z,12.90
2019-04-10T13:25:55.446Z,13.00
2019-04-10T13:28:20.515Z,13.00
2019-04-10T13:30:53.850Z,12.90
2019-04-10T13:33:20.556Z,12.90
2019-04-10T13:35:49.537Z,12.80
2019-04-10T13:38:28.631Z,12.80
2019-04-10T13:40:50.147Z,12.90
2019-04-10T13:43:20.030Z,12.90
2019-04-10T13:45:49.261Z,12.90
2019-04-10T13:48:18.315Z,13.00
2019-04-10T13:50:47.289Z,13.00
2019-04-10T13:53:16.235Z,13.00
2019-04-10T13:55:45.370Z,13.10
2019-04-10T13:58:15.086Z,13.10
2019-04-10T14:00:45.113Z,13.10
2019-04-10T14:03:14.598Z,13.10
2019-04-10T14:05:43.628Z,13.10
2019-04-10T14:08:12.939Z,13.10
2019-04-10T14:10:42.029Z,13.20
2019-04-10T14:13:11.581Z,13.20
2019-04-10T14:15:40.853Z,13.20
2019-04-10T14:18:10.225Z,13.20
2019-04-10T14:20:39.562Z,13.10
2019-04-10T14:23:10.444Z,13.00
2019-04-10T14:25:58.257Z,12.90
2019-04-10T14:28:29.207Z,12.90
2019-04-10T14:31:00.032Z,12.80
2019-04-10T14:33:30.187Z,12.80
2019-04-10T14:36:00.011Z,12.70
2019-04-10T14:38:29.261Z,12.70
2019-04-10T14:40:58.347Z,12.70
2019-04-10T14:43:28.347Z,12.70
2019-04-10T14:45:57.621Z,12.70
2019-04-10T14:48:27.889Z,12.70
2019-04-10T14:50:57.662Z,12.70
2019-04-10T14:53:26.897Z,12.90
2019-04-10T14:55:55.946Z,12.90
2019-04-10T14:58:28.144Z,13.00
2019-04-10T15:00:57.720Z,13.00
2019-04-10T15:03:26.689Z,13.00
2019-04-10T15:05:57.111Z,12.90
2019-04-10T15:08:26.483Z,12.90
2019-04-10T15:10:55.552Z,12.80
2019-04-10T15:13:25.851Z,12.70
2019-04-10T15:15:55.104Z,12.60
2019-04-10T15:18:24.289Z,12.60
2019-04-10T15:20:54.287Z,12.60
2019-04-10T15:23:23.420Z,12.60
2019-04-10T15:25:52.832Z,12.70
2019-04-10T15:28:21.825Z,12.60
2019-04-10T15:30:50.905Z,12.60
2019-04-10T15:33:20.572Z,12.60
2019-04-10T15:35:49.808Z,12.60
2019-04-10T15:38:20.014Z,12.50
2019-04-10T15:40:50.320Z,12.50
2019-04-10T15:43:20.888Z,12.50
2019-04-10T15:45:50.426Z,12.50
2019-04-10T15:48:19.526Z,12.50
2019-04-10T15:50:49.709Z,12.60
2019-04-10T15:53:20.136Z,12.60
2019-04-10T15:55:49.626Z,12.60
2019-04-10T15:58:19.375Z,12.60
2019-04-10T16:01:14.049Z,12.50
2019-04-10T16:03:43.174Z,12.50
2019-04-10T16:06:13.280Z,12.50
2019-04-10T16:08:42.780Z,12.50
2019-04-10T16:11:30.021Z,12.50
2019-04-10T16:14:01.022Z,12.40
2019-04-10T16:16:32.042Z,12.40
2019-04-10T16:19:02.760Z,12.40
2019-04-10T16:21:31.932Z,12.30
2019-04-10T16:24:14.558Z,12.30
2019-04-10T16:26:43.822Z,12.50
2019-04-10T16:29:13.124Z,12.50
2019-04-10T16:31:42.129Z,12.50
2019-04-10T16:34:11.378Z,12.40
2019-04-10T16:36:41.664Z,12.40
2019-04-10T16:39:13.440Z,12.40
2019-04-10T16:41:43.970Z,12.30
2019-04-10T16:44:13.303Z,12.30
2019-04-10T16:46:42.547Z,12.30
2019-04-10T16:49:12.754Z,12.30
2019-04-10T16:51:42.625Z,12.30
2019-04-10T16:54:12.608Z,12.30
2019-04-10T16:56:42.229Z,12.30
2019-04-10T16:59:12.194Z,12.30
2019-04-10T17:01:41.259Z,12.30
2019-04-10T17:04:11.193Z,12.20
2019-04-10T17:06:40.372Z,12.20
2019-04-10T17:09:12.241Z,12.20
2019-04-10T17:11:41.402Z,12.20
2019-04-10T17:14:11.027Z,12.20
2019-04-10T17:16:40.171Z,12.10
2019-04-10T17:19:09.727Z,12.20
2019-04-10T17:21:39.053Z,12.30
2019-04-10T17:24:09.208Z,12.20
2019-04-10T17:26:39.189Z,12.10
2019-04-10T17:29:09.204Z,12.10
2019-04-10T17:31:38.466Z,12.00
2019-04-10T17:34:08.292Z,11.90
2019-04-10T17:36:37.351Z,11.70
2019-04-10T17:39:11.108Z,11.60
2019-04-10T17:41:41.809Z,11.50
2019-04-10T17:44:11.733Z,11.50
2019-04-10T17:46:41.609Z,11.40
2019-04-10T17:49:11.947Z,11.30
2019-04-10T17:51:41.881Z,11.30
2019-04-10T17:54:11.821Z,11.30
2019-04-10T17:56:41.114Z,11.20
2019-04-10T17:59:12.069Z,11.20
2019-04-10T18:01:41.585Z,11.20
2019-04-10T18:04:10.607Z,11.10
2019-04-10T18:06:39.673Z,11.10
2019-04-10T18:09:09.649Z,11.10
2019-04-10T18:11:39.508Z,11.00
2019-04-10T18:14:09.095Z,11.00
2019-04-10T18:16:38.462Z,10.90
2019-04-10T18:19:08.372Z,10.90
2019-04-10T18:21:39.205Z,10.90
2019-04-10T18:24:08.344Z,10.90
2019-04-10T18:26:37.312Z,10.80
2019-04-10T18:29:06.378Z,10.80
2019-04-10T18:31:36.745Z,10.80
2019-04-10T18:34:09.465Z,10.80
2019-04-10T18:36:36.639Z,10.80
2019-04-10T18:39:11.331Z,10.80
2019-04-10T18:41:40.215Z,10.70
2019-04-10T18:44:09.347Z,10.70
2019-04-10T18:46:39.494Z,10.70
2019-04-10T18:49:09.346Z,10.70
2019-04-10T18:51:38.928Z,10.70
2019-04-10T18:54:10.745Z,10.70
2019-04-10T18:56:39.083Z,10.60
2019-04-10T18:59:10.223Z,10.70
2019-04-10T19:01:56.751Z,10.70
2019-04-10T19:04:39.495Z,10.60
2019-04-10T19:07:09.134Z,10.60
2019-04-10T19:09:39.003Z,10.50
2019-04-10T19:12:08.485Z,10.50
2019-04-10T19:14:38.638Z,10.40
2019-04-10T19:17:09.087Z,10.40
2019-04-10T19:19:40.108Z,10.50
2019-04-10T19:22:11.220Z,10.40
2019-04-10T19:24:41.718Z,10.50
2019-04-10T19:27:11.816Z,10.50
2019-04-10T19:29:40.971Z,10.50
2019-04-10T19:32:12.056Z,10.50
2019-04-10T19:34:41.346Z,10.40
2019-04-10T19:37:10.554Z,10.40
2019-04-10T19:39:40.479Z,10.40
2019-04-10T19:42:09.831Z,10.40
2019-04-10T19:44:39.307Z,10.40
2019-04-10T19:47:08.412Z,10.30
2019-04-10T19:49:38.800Z,10.40
2019-04-10T19:52:08.620Z,10.40
2019-04-10T19:54:38.765Z,10.40
2019-04-10T19:57:08.932Z,10.40
2019-04-10T19:59:38.029Z,10.40
2019-04-10T20:02:07.271Z,10.40
2019-04-10T20:04:36.891Z,10.20
2019-04-10T20:07:06.841Z,10.30
2019-04-10T20:09:36.764Z,10.40
2019-04-10T20:12:06.549Z,10.30
2019-04-10T20:14:36.690Z,10.30
2019-04-10T20:17:06.103Z,10.30
2019-04-10T20:19:35.082Z,10.40
2019-04-10T20:22:04.575Z,10.40
2019-04-10T20:24:34.650Z,10.50
2019-04-10T20:27:03.913Z,10.50
2019-04-10T20:29:32.969Z,10.50
2019-04-10T20:32:02.285Z,10.60
2019-04-10T20:34:31.629Z,10.60
2019-04-10T20:37:06.617Z,10.70
2019-04-10T20:39:33.631Z,10.70
2019-04-10T20:42:02.953Z,10.80
2019-04-10T20:44:32.586Z,10.80
2019-04-10T20:47:02.527Z,10.90
2019-04-10T20:49:31.686Z,10.90
2019-04-10T20:52:01.894Z,10.90
2019-04-10T20:54:31.248Z,11.00
2019-04-10T20:57:01.165Z,11.00
2019-04-10T20:59:30.595Z,11.00
2019-04-10T21:02:00.003Z,11.00
2019-04-10T21:04:29.673Z,11.00
2019-04-10T21:06:58.807Z,11.00
2019-04-10T21:09:27.992Z,11.00
2019-04-10T21:12:03.885Z,11.10
2019-04-10T21:14:29.619Z,11.10
2019-04-10T21:16:58.788Z,11.10
2019-04-10T21:19:28.957Z,11.10
2019-04-10T21:21:58.226Z,11.10
2019-04-10T21:24:27.587Z,11.10
2019-04-10T21:26:56.973Z,11.10
2019-04-10T21:29:44.241Z,11.10
2019-04-10T21:32:28.147Z,11.10
2019-04-10T21:34:57.871Z,11.10
2019-04-10T21:37:26.858Z,11.10
2019-04-10T21:39:56.262Z,11.10
2019-04-10T21:42:26.845Z,11.10
2019-04-10T21:44:56.011Z,11.10
2019-04-10T21:47:25.668Z,11.10
2019-04-10T21:49:54.955Z,11.10
2019-04-10T21:52:25.019Z,11.10
2019-04-10T21:54:57.815Z,11.10
2019-04-10T21:57:26.365Z,11.10
2019-04-10T21:59:56.028Z,11.10
2019-04-10T22:02:25.236Z,11.10
2019-04-10T22:04:55.275Z,11.10
2019-04-10T22:07:28.971Z,11.00
2019-04-10T22:10:15.972Z,11.00
2019-04-10T22:12:47.725Z,11.00
2019-04-10T22:15:35.070Z,11.00
2019-04-10T22:18:05.147Z,11.00
2019-04-10T22:20:34.345Z,11.00
2019-04-10T22:23:04.034Z,11.00
2019-04-10T22:25:33.614Z,11.00
2019-04-10T22:28:04.165Z,11.00
2019-04-10T22:30:33.537Z,11.00
2019-04-10T22:33:03.289Z,11.00
2019-04-10T22:35:33.488Z,11.00
2019-04-10T22:38:02.698Z,11.00
2019-04-10T22:40:31.901Z,11.00
2019-04-10T22:43:01.119Z,11.00
2019-04-10T22:45:32.664Z,11.00
2019-04-10T22:48:02.188Z,11.00
2019-04-10T22:50:31.184Z,10.90
2019-04-10T22:53:01.372Z,11.00
2019-04-10T22:55:31.799Z,11.00
2019-04-10T22:58:02.389Z,10.90
2019-04-10T23:00:32.603Z,10.90
2019-04-10T23:03:03.159Z,10.90
2019-04-10T23:05:32.549Z,10.90
2019-04-10T23:08:01.561Z,10.90
2019-04-10T23:10:30.678Z,10.90
2019-04-10T23:13:04.406Z,10.80
2019-04-10T23:15:31.425Z,10.80
2019-04-10T23:18:01.273Z,10.80
2019-04-10T23:20:30.482Z,10.80
2019-04-10T23:23:00.898Z,10.70
2019-04-10T23:25:30.108Z,10.70
2019-04-10T23:27:59.135Z,10.70
2019-04-10T23:30:28.719Z,10.70
2019-04-10T23:32:57.903Z,10.70
2019-04-10T23:35:27.644Z,10.70
2019-04-10T23:37:57.407Z,10.80
2019-04-10T23:40:27.205Z,10.80
2019-04-10T23:43:07.726Z,10.80
2019-04-10T23:45:27.318Z,10.80
2019-04-10T23:47:56.443Z,10.80
2019-04-10T23:50:26.151Z,10.80
2019-04-10T23:52:56.234Z,10.80
2019-04-10T23:55:26.159Z,10.80
2019-04-10T23:57:55.861Z,10.80
